sensor_id;sensor_type;location;lat;lon;timestamp;pressure;altitude;pressure_sealevel;temperature;humidity
41078;BME280;26823;42.662;23.352;2022-11-18T00:01:45;93739.94;;;7.27;100.00
41078;BME280;26823;42.662;23.352;2022-11-18T00:04:10;93727.13;;;7.14;100.00
41078;BME280;26823;42.662;23.352;2022-11-18T00:06:36;93751.00;;;7.21;100.00
41078;BME280;26823;42.662;23.352;2022-11-18T00:09:03;93748.00;;;7.27;100.00
41078;BME280;26823;42.662;23.352;2022-11-18T00:11:29;93760.31;;;7.33;100.00
41078;BME280;26823;42.662;23.352;2022-11-18T00:14:16;93751.09;;;7.40;100.00
41078;BME280;26823;42.662;23.352;2022-11-18T00:16:45;93762.50;;;7.31;100.00
41078;BME280;26823;42.662;23.352;2022-11-18T00:19:11;93746.50;;;7.16;100.00
41078;BME280;26823;42.662;23.352;2022-11-18T00:21:36;93744.25;;;7.23;100.00
41078;BME280;26823;42.662;23.352;2022-11-18T00:24:02;93752.41;;;7.42;100.00
41078;BME280;26823;42.662;23.352;2022-11-18T00:26:27;93707.78;;;7.17;100.00
41078;BME280;26823;42.662;23.352;2022-11-18T00:28:53;93749.03;;;7.31;100.00
41078;BME280;26823;42.662;23.352;2022-11-18T00:31:18;93712.44;;;7.06;100.00
41078;BME280;26823;42.662;23.352;2022-11-18T00:33:44;93760.09;;;7.30;100.00
41078;BME280;26823;42.662;23.352;2022-11-18T00:36:11;93758.47;;;7.29;100.00
41078;BME280;26823;42.662;23.352;2022-11-18T00:38:37;93746.88;;;7.33;100.00
41078;BME280;26823;42.662;23.352;2022-11-18T00:41:07;93735.28;;;7.33;100.00
41078;BME280;26823;42.662;23.352;2022-11-18T00:43:34;93728.22;;;7.13;100.00
41078;BME280;26823;42.662;23.352;2022-11-18T00:46:00;93741.91;;;7.16;100.00
41078;BME280;26823;42.662;23.352;2022-11-18T00:48:26;93752.44;;;7.13;100.00
41078;BME280;26823;42.662;23.352;2022-11-18T00:50:57;93748.78;;;7.28;100.00
41078;BME280;26823;42.662;23.352;2022-11-18T00:53:24;93738.47;;;7.11;100.00
41078;BME280;26823;42.662;23.352;2022-11-18T00:55:50;93747.09;;;7.08;100.00
41078;BME280;26823;42.662;23.352;2022-11-18T00:58:16;93741.25;;;7.00;100.00
41078;BME280;26823;42.662;23.352;2022-11-18T01:00:48;93759.66;;;7.17;100.00
41078;BME280;26823;42.662;23.352;2022-11-18T01:03:17;93756.19;;;7.12;100.00
41078;BME280;26823;42.662;23.352;2022-11-18T01:05:43;93725.72;;;6.92;100.00
41078;BME280;26823;42.662;23.352;2022-11-18T01:08:10;93712.56;;;6.91;100.00
41078;BME280;26823;42.662;23.352;2022-11-18T01:10:36;93752.75;;;7.06;100.00
41078;BME280;26823;42.662;23.352;2022-11-18T01:13:02;93755.00;;;6.94;100.00
41078;BME280;26823;42.662;23.352;2022-11-18T01:15:52;93754.31;;;6.83;100.00
41078;BME280;26823;42.662;23.352;2022-11-18T01:18:20;93737.56;;;6.91;100.00
41078;BME280;26823;42.662;23.352;2022-11-18T01:20:46;93747.97;;;6.98;100.00
41078;BME280;26823;42.662;23.352;2022-11-18T01:23:12;93760.63;;;6.97;100.00
41078;BME280;26823;42.662;23.352;2022-11-18T01:25:40;93756.41;;;6.86;100.00
41078;BME280;26823;42.662;23.352;2022-11-18T01:28:05;93759.84;;;6.97;100.00
41078;BME280;26823;42.662;23.352;2022-11-18T01:30:36;93749.44;;;6.85;100.00
41078;BME280;26823;42.662;23.352;2022-11-18T01:33:02;93736.03;;;6.80;100.00
41078;BME280;26823;42.662;23.352;2022-11-18T01:35:33;93743.13;;;6.65;100.00
41078;BME280;26823;42.662;23.352;2022-11-18T01:37:58;93745.31;;;6.58;100.00
41078;BME280;26823;42.662;23.352;2022-11-18T01:40:26;93742.03;;;6.72;100.00
41078;BME280;26823;42.662;23.352;2022-11-18T01:42:53;93759.13;;;6.81;100.00
41078;BME280;26823;42.662;23.352;2022-11-18T01:45:25;93761.63;;;6.72;100.00
41078;BME280;26823;42.662;23.352;2022-11-18T01:50:27;93760.44;;;6.49;100.00
41078;BME280;26823;42.662;23.352;2022-11-18T01:52:57;93750.78;;;6.48;100.00
41078;BME280;26823;42.662;23.352;2022-11-18T01:55:26;93753.78;;;6.41;100.00
41078;BME280;26823;42.662;23.352;2022-11-18T01:58:00;93755.41;;;6.37;100.00
41078;BME280;26823;42.662;23.352;2022-11-18T02:00:28;93758.38;;;6.30;100.00
41078;BME280;26823;42.662;23.352;2022-11-18T02:02:53;93749.47;;;6.40;100.00
41078;BME280;26823;42.662;23.352;2022-11-18T02:05:20;93753.81;;;6.36;100.00
41078;BME280;26823;42.662;23.352;2022-11-18T02:07:46;93754.31;;;6.38;100.00
41078;BME280;26823;42.662;23.352;2022-11-18T02:10:21;93751.91;;;6.36;100.00
41078;BME280;26823;42.662;23.352;2022-11-18T02:12:48;93716.84;;;6.17;100.00
41078;BME280;26823;42.662;23.352;2022-11-18T02:15:15;93744.09;;;6.40;100.00
41078;BME280;26823;42.662;23.352;2022-11-18T02:17:56;93740.38;;;6.36;100.00
41078;BME280;26823;42.662;23.352;2022-11-18T02:20:33;93750.91;;;6.27;100.00
41078;BME280;26823;42.662;23.352;2022-11-18T02:26:23;93756.22;;;6.38;100.00
41078;BME280;26823;42.662;23.352;2022-11-18T02:29:13;93753.47;;;6.48;100.00
41078;BME280;26823;42.662;23.352;2022-11-18T02:31:54;93766.03;;;6.58;100.00
41078;BME280;26823;42.662;23.352;2022-11-18T02:35:05;93755.78;;;6.60;100.00
41078;BME280;26823;42.662;23.352;2022-11-18T02:40:16;93749.69;;;6.49;100.00
41078;BME280;26823;42.662;23.352;2022-11-18T02:42:45;93746.25;;;6.38;100.00
41078;BME280;26823;42.662;23.352;2022-11-18T02:45:16;93738.28;;;6.28;100.00
41078;BME280;26823;42.662;23.352;2022-11-18T02:47:45;93736.41;;;6.23;100.00
41078;BME280;26823;42.662;23.352;2022-11-18T02:50:15;93759.47;;;6.29;100.00
41078;BME280;26823;42.662;23.352;2022-11-18T02:52:44;93742.88;;;6.22;100.00
41078;BME280;26823;42.662;23.352;2022-11-18T02:55:12;93735.06;;;6.20;100.00
41078;BME280;26823;42.662;23.352;2022-11-18T02:57:39;93748.22;;;6.27;100.00
41078;BME280;26823;42.662;23.352;2022-11-18T03:00:07;93742.09;;;6.16;100.00
41078;BME280;26823;42.662;23.352;2022-11-18T03:02:44;93744.25;;;6.19;100.00
41078;BME280;26823;42.662;23.352;2022-11-18T03:05:17;93760.88;;;6.16;100.00
41078;BME280;26823;42.662;23.352;2022-11-18T03:07:47;93755.25;;;6.13;100.00
41078;BME280;26823;42.662;23.352;2022-11-18T03:10:16;93746.75;;;6.00;100.00
41078;BME280;26823;42.662;23.352;2022-11-18T03:12:56;93762.03;;;6.00;100.00
41078;BME280;26823;42.662;23.352;2022-11-18T03:15:40;93759.34;;;6.00;100.00
41078;BME280;26823;42.662;23.352;2022-11-18T03:21:08;93749.94;;;6.02;100.00
41078;BME280;26823;42.662;23.352;2022-11-18T03:26:35;93758.50;;;6.10;100.00
41078;BME280;26823;42.662;23.352;2022-11-18T03:29:08;93741.13;;;5.92;100.00
41078;BME280;26823;42.662;23.352;2022-11-18T03:31:38;93738.16;;;5.98;100.00
41078;BME280;26823;42.662;23.352;2022-11-18T03:34:29;93752.91;;;6.01;100.00
41078;BME280;26823;42.662;23.352;2022-11-18T03:36:56;93732.88;;;5.72;100.00
41078;BME280;26823;42.662;23.352;2022-11-18T03:39:24;93725.38;;;5.64;100.00
41078;BME280;26823;42.662;23.352;2022-11-18T03:41:54;93748.91;;;5.88;100.00
41078;BME280;26823;42.662;23.352;2022-11-18T03:44:35;93736.00;;;6.06;100.00
41078;BME280;26823;42.662;23.352;2022-11-18T03:47:15;93742.16;;;6.06;100.00
41078;BME280;26823;42.662;23.352;2022-11-18T03:49:57;93710.53;;;5.87;100.00
41078;BME280;26823;42.662;23.352;2022-11-18T03:52:30;93729.31;;;5.87;100.00
41078;BME280;26823;42.662;23.352;2022-11-18T03:55:01;93724.78;;;5.83;100.00
41078;BME280;26823;42.662;23.352;2022-11-18T03:57:36;93701.78;;;5.66;100.00
41078;BME280;26823;42.662;23.352;2022-11-18T04:00:08;93729.06;;;5.89;100.00
41078;BME280;26823;42.662;23.352;2022-11-18T04:02:36;93731.72;;;5.99;100.00
41078;BME280;26823;42.662;23.352;2022-11-18T04:05:04;93717.72;;;6.02;100.00
41078;BME280;26823;42.662;23.352;2022-11-18T04:07:33;93731.44;;;6.01;100.00
41078;BME280;26823;42.662;23.352;2022-11-18T04:10:15;93735.13;;;6.10;100.00
41078;BME280;26823;42.662;23.352;2022-11-18T04:12:46;93736.75;;;6.11;100.00
41078;BME280;26823;42.662;23.352;2022-11-18T04:15:21;93730.38;;;6.02;100.00
41078;BME280;26823;42.662;23.352;2022-11-18T04:17:48;93738.66;;;6.06;100.00
41078;BME280;26823;42.662;23.352;2022-11-18T04:20:16;93708.72;;;5.78;100.00
41078;BME280;26823;42.662;23.352;2022-11-18T04:22:42;93738.91;;;6.09;100.00
41078;BME280;26823;42.662;23.352;2022-11-18T04:25:08;93726.88;;;5.91;100.00
41078;BME280;26823;42.662;23.352;2022-11-18T04:27:34;93736.34;;;5.73;100.00
41078;BME280;26823;42.662;23.352;2022-11-18T04:29:59;93755.91;;;5.89;100.00
41078;BME280;26823;42.662;23.352;2022-11-18T04:32:24;93723.25;;;5.66;100.00
41078;BME280;26823;42.662;23.352;2022-11-18T04:34:50;93735.06;;;5.60;100.00
41078;BME280;26823;42.662;23.352;2022-11-18T04:37:15;93742.78;;;5.72;100.00
41078;BME280;26823;42.662;23.352;2022-11-18T04:39:40;93740.09;;;5.77;100.00
41078;BME280;26823;42.662;23.352;2022-11-18T04:42:06;93762.09;;;5.79;100.00
41078;BME280;26823;42.662;23.352;2022-11-18T04:44:38;93751.88;;;5.81;100.00
41078;BME280;26823;42.662;23.352;2022-11-18T04:47:10;93757.25;;;5.76;100.00
41078;BME280;26823;42.662;23.352;2022-11-18T04:49:35;93760.69;;;5.92;100.00
41078;BME280;26823;42.662;23.352;2022-11-18T04:52:01;93756.13;;;5.93;100.00
41078;BME280;26823;42.662;23.352;2022-11-18T04:54:27;93745.19;;;5.79;100.00
41078;BME280;26823;42.662;23.352;2022-11-18T04:56:54;93761.78;;;5.91;100.00
41078;BME280;26823;42.662;23.352;2022-11-18T04:59:27;93742.47;;;5.84;100.00
41078;BME280;26823;42.662;23.352;2022-11-18T05:01:53;93762.84;;;5.90;100.00
41078;BME280;26823;42.662;23.352;2022-11-18T05:04:21;93759.63;;;5.93;100.00
41078;BME280;26823;42.662;23.352;2022-11-18T05:06:47;93745.41;;;5.87;100.00
41078;BME280;26823;42.662;23.352;2022-11-18T05:09:13;93728.59;;;5.71;100.00
41078;BME280;26823;42.662;23.352;2022-11-18T05:11:39;93739.28;;;5.82;100.00
41078;BME280;26823;42.662;23.352;2022-11-18T05:14:28;93764.69;;;6.05;100.00
41078;BME280;26823;42.662;23.352;2022-11-18T05:16:55;93741.88;;;5.97;100.00
41078;BME280;26823;42.662;23.352;2022-11-18T05:19:21;93750.16;;;6.11;100.00
41078;BME280;26823;42.662;23.352;2022-11-18T05:21:46;93776.19;;;6.21;100.00
41078;BME280;26823;42.662;23.352;2022-11-18T05:24:12;93765.94;;;6.23;100.00
41078;BME280;26823;42.662;23.352;2022-11-18T05:26:38;93759.84;;;6.12;100.00
41078;BME280;26823;42.662;23.352;2022-11-18T05:29:03;93762.72;;;6.26;100.00
41078;BME280;26823;42.662;23.352;2022-11-18T05:31:29;93768.59;;;6.33;100.00
41078;BME280;26823;42.662;23.352;2022-11-18T05:33:54;93766.63;;;6.44;100.00
41078;BME280;26823;42.662;23.352;2022-11-18T05:36:20;93755.13;;;6.39;100.00
41078;BME280;26823;42.662;23.352;2022-11-18T05:38:46;93763.66;;;6.46;100.00
41078;BME280;26823;42.662;23.352;2022-11-18T05:41:12;93757.03;;;5.72;100.00
41078;BME280;26823;42.662;23.352;2022-11-18T05:44:01;93773.03;;;6.03;100.00
41078;BME280;26823;42.662;23.352;2022-11-18T05:46:27;93773.50;;;6.21;100.00
41078;BME280;26823;42.662;23.352;2022-11-18T05:48:53;93774.22;;;6.32;100.00
41078;BME280;26823;42.662;23.352;2022-11-18T05:51:18;93762.66;;;6.36;100.00
41078;BME280;26823;42.662;23.352;2022-11-18T05:53:45;93757.88;;;6.28;100.00
41078;BME280;26823;42.662;23.352;2022-11-18T05:56:19;93766.59;;;6.49;100.00
41078;BME280;26823;42.662;23.352;2022-11-18T05:58:46;93763.47;;;6.32;100.00
41078;BME280;26823;42.662;23.352;2022-11-18T06:01:15;93749.81;;;6.33;100.00
41078;BME280;26823;42.662;23.352;2022-11-18T06:03:42;93760.53;;;6.33;100.00
41078;BME280;26823;42.662;23.352;2022-11-18T06:06:09;93746.50;;;6.42;100.00
41078;BME280;26823;42.662;23.352;2022-11-18T06:08:42;93756.03;;;6.24;100.00
41078;BME280;26823;42.662;23.352;2022-11-18T06:11:11;93737.97;;;6.29;100.00
41078;BME280;26823;42.662;23.352;2022-11-18T06:13:44;93760.91;;;6.56;100.00
41078;BME280;26823;42.662;23.352;2022-11-18T06:16:16;93747.72;;;6.20;100.00
41078;BME280;26823;42.662;23.352;2022-11-18T06:18:42;93758.44;;;6.20;100.00
41078;BME280;26823;42.662;23.352;2022-11-18T06:21:08;93746.28;;;6.33;100.00
41078;BME280;26823;42.662;23.352;2022-11-18T06:23:35;93747.34;;;6.37;100.00
41078;BME280;26823;42.662;23.352;2022-11-18T06:26:01;93762.03;;;6.55;100.00
41078;BME280;26823;42.662;23.352;2022-11-18T06:28:26;93748.34;;;6.51;100.00
41078;BME280;26823;42.662;23.352;2022-11-18T06:30:53;93759.50;;;6.69;100.00
41078;BME280;26823;42.662;23.352;2022-11-18T06:33:19;93754.38;;;6.73;100.00
41078;BME280;26823;42.662;23.352;2022-11-18T06:35:44;93744.91;;;6.80;100.00
41078;BME280;26823;42.662;23.352;2022-11-18T06:38:10;93748.38;;;6.81;100.00
41078;BME280;26823;42.662;23.352;2022-11-18T06:40:35;93744.88;;;6.85;100.00
41078;BME280;26823;42.662;23.352;2022-11-18T06:43:08;93746.66;;;6.95;100.00
41078;BME280;26823;42.662;23.352;2022-11-18T06:45:52;93736.31;;;6.78;100.00
41078;BME280;26823;42.662;23.352;2022-11-18T06:48:36;93743.78;;;6.87;100.00
41078;BME280;26823;42.662;23.352;2022-11-18T06:51:06;93750.19;;;6.91;100.00
41078;BME280;26823;42.662;23.352;2022-11-18T06:53:32;93746.94;;;6.94;100.00
41078;BME280;26823;42.662;23.352;2022-11-18T06:56:02;93750.94;;;6.96;100.00
41078;BME280;26823;42.662;23.352;2022-11-18T06:58:27;93758.44;;;7.05;100.00
41078;BME280;26823;42.662;23.352;2022-11-18T07:00:53;93756.53;;;7.05;100.00
41078;BME280;26823;42.662;23.352;2022-11-18T07:03:18;93749.78;;;7.08;100.00
41078;BME280;26823;42.662;23.352;2022-11-18T07:05:44;93756.44;;;7.15;100.00
41078;BME280;26823;42.662;23.352;2022-11-18T07:08:09;93754.41;;;7.31;100.00
41078;BME280;26823;42.662;23.352;2022-11-18T07:10:34;93741.16;;;7.40;100.00
41078;BME280;26823;42.662;23.352;2022-11-18T07:13:00;93753.19;;;7.18;100.00
41078;BME280;26823;42.662;23.352;2022-11-18T07:15:25;93763.06;;;7.28;100.00
41078;BME280;26823;42.662;23.352;2022-11-18T07:17:50;93759.69;;;7.42;100.00
41078;BME280;26823;42.662;23.352;2022-11-18T07:20:16;93726.69;;;7.36;100.00
41078;BME280;26823;42.662;23.352;2022-11-18T07:22:41;93734.69;;;7.65;100.00
41078;BME280;26823;42.662;23.352;2022-11-18T07:25:07;93707.66;;;6.98;100.00
41078;BME280;26823;42.662;23.352;2022-11-18T07:27:33;93719.63;;;7.40;100.00
41078;BME280;26823;42.662;23.352;2022-11-18T07:29:58;93712.25;;;7.51;100.00
41078;BME280;26823;42.662;23.352;2022-11-18T07:32:23;93732.75;;;7.71;100.00
41078;BME280;26823;42.662;23.352;2022-11-18T07:34:49;93712.41;;;7.84;100.00
41078;BME280;26823;42.662;23.352;2022-11-18T07:37:14;93710.09;;;7.96;100.00
41078;BME280;26823;42.662;23.352;2022-11-18T07:39:39;93706.47;;;8.06;100.00
41078;BME280;26823;42.662;23.352;2022-11-18T07:42:05;93711.50;;;8.13;100.00
41078;BME280;26823;42.662;23.352;2022-11-18T07:44:30;93687.44;;;7.78;100.00
41078;BME280;26823;42.662;23.352;2022-11-18T07:46:56;93707.13;;;7.74;100.00
41078;BME280;26823;42.662;23.352;2022-11-18T07:49:21;93690.88;;;7.60;100.00
41078;BME280;26823;42.662;23.352;2022-11-18T07:51:46;93728.06;;;7.58;100.00
41078;BME280;26823;42.662;23.352;2022-11-18T07:54:13;93702.16;;;7.62;100.00
41078;BME280;26823;42.662;23.352;2022-11-18T07:56:41;93706.94;;;8.13;100.00
41078;BME280;26823;42.662;23.352;2022-11-18T07:59:06;93720.09;;;8.15;100.00
41078;BME280;26823;42.662;23.352;2022-11-18T08:01:32;93704.38;;;8.03;100.00
41078;BME280;26823;42.662;23.352;2022-11-18T08:04:09;93695.44;;;7.83;100.00
41078;BME280;26823;42.662;23.352;2022-11-18T08:06:35;93753.81;;;7.88;100.00
41078;BME280;26823;42.662;23.352;2022-11-18T08:09:02;93750.91;;;7.84;100.00
41078;BME280;26823;42.662;23.352;2022-11-18T08:11:34;93758.38;;;8.12;100.00
41078;BME280;26823;42.662;23.352;2022-11-18T08:13:59;93765.25;;;7.99;100.00
41078;BME280;26823;42.662;23.352;2022-11-18T08:16:25;93767.44;;;8.40;100.00
41078;BME280;26823;42.662;23.352;2022-11-18T08:18:51;93773.31;;;8.67;100.00
41078;BME280;26823;42.662;23.352;2022-11-18T08:21:18;93742.69;;;8.38;100.00
41078;BME280;26823;42.662;23.352;2022-11-18T08:23:49;93736.78;;;8.17;100.00
41078;BME280;26823;42.662;23.352;2022-11-18T08:26:15;93719.81;;;8.36;100.00
41078;BME280;26823;42.662;23.352;2022-11-18T08:28:41;93728.97;;;8.15;100.00
41078;BME280;26823;42.662;23.352;2022-11-18T08:31:19;93722.41;;;8.03;100.00
41078;BME280;26823;42.662;23.352;2022-11-18T08:33:45;93735.41;;;8.20;100.00
41078;BME280;26823;42.662;23.352;2022-11-18T08:36:21;93732.16;;;7.98;100.00
41078;BME280;26823;42.662;23.352;2022-11-18T08:38:47;93701.69;;;8.03;100.00
41078;BME280;26823;42.662;23.352;2022-11-18T08:41:35;93710.78;;;8.26;100.00
41078;BME280;26823;42.662;23.352;2022-11-18T08:44:00;93695.34;;;8.13;100.00
41078;BME280;26823;42.662;23.352;2022-11-18T08:46:27;93682.53;;;8.24;100.00
41078;BME280;26823;42.662;23.352;2022-11-18T08:48:52;93697.50;;;8.54;100.00
41078;BME280;26823;42.662;23.352;2022-11-18T08:51:18;93705.69;;;8.44;100.00
41078;BME280;26823;42.662;23.352;2022-11-18T08:53:44;93656.09;;;8.26;100.00
41078;BME280;26823;42.662;23.352;2022-11-18T08:56:15;93664.63;;;8.33;100.00
41078;BME280;26823;42.662;23.352;2022-11-18T08:58:41;93676.38;;;8.61;100.00
41078;BME280;26823;42.662;23.352;2022-11-18T09:01:07;93650.38;;;8.52;100.00
41078;BME280;26823;42.662;23.352;2022-11-18T09:03:33;93613.34;;;8.38;100.00
41078;BME280;26823;42.662;23.352;2022-11-18T09:08:44;93650.41;;;8.65;100.00
41078;BME280;26823;42.662;23.352;2022-11-18T09:11:15;93617.97;;;8.71;100.00
41078;BME280;26823;42.662;23.352;2022-11-18T09:13:41;93625.38;;;8.46;100.00
41078;BME280;26823;42.662;23.352;2022-11-18T09:16:07;93637.03;;;8.60;100.00
41078;BME280;26823;42.662;23.352;2022-11-18T09:18:33;93636.94;;;8.65;100.00
41078;BME280;26823;42.662;23.352;2022-11-18T09:21:04;93642.16;;;8.76;100.00
41078;BME280;26823;42.662;23.352;2022-11-18T09:23:32;93618.03;;;8.52;100.00
41078;BME280;26823;42.662;23.352;2022-11-18T09:28:27;93649.34;;;9.69;100.00
41078;BME280;26823;42.662;23.352;2022-11-18T09:30:53;93644.06;;;10.28;100.00
41078;BME280;26823;42.662;23.352;2022-11-18T09:33:19;93624.25;;;10.19;100.00
41078;BME280;26823;42.662;23.352;2022-11-18T09:35:45;93582.88;;;9.59;100.00
41078;BME280;26823;42.662;23.352;2022-11-18T09:38:10;93614.28;;;9.55;100.00
41078;BME280;26823;42.662;23.352;2022-11-18T09:40:43;93599.88;;;9.18;100.00
41078;BME280;26823;42.662;23.352;2022-11-18T09:43:24;93620.06;;;9.35;100.00
41078;BME280;26823;42.662;23.352;2022-11-18T09:45:57;93597.03;;;9.65;100.00
41078;BME280;26823;42.662;23.352;2022-11-18T09:48:25;93587.56;;;9.40;100.00
41078;BME280;26823;42.662;23.352;2022-11-18T09:51:11;93582.53;;;9.75;100.00
41078;BME280;26823;42.662;23.352;2022-11-18T09:53:40;93585.16;;;10.03;100.00
41078;BME280;26823;42.662;23.352;2022-11-18T09:56:15;93581.06;;;10.28;100.00
41078;BME280;26823;42.662;23.352;2022-11-18T09:58:41;93561.63;;;10.40;100.00
41078;BME280;26823;42.662;23.352;2022-11-18T10:01:17;93588.97;;;10.61;100.00
41078;BME280;26823;42.662;23.352;2022-11-18T10:03:43;93569.56;;;10.59;98.93
41078;BME280;26823;42.662;23.352;2022-11-18T10:08:44;93574.44;;;10.34;100.00
41078;BME280;26823;42.662;23.352;2022-11-18T10:11:17;93575.34;;;10.29;100.00
41078;BME280;26823;42.662;23.352;2022-11-18T10:24:49;93547.56;;;11.81;92.04
41078;BME280;26823;42.662;23.352;2022-11-18T10:27:16;93557.59;;;12.68;87.31
41078;BME280;26823;42.662;23.352;2022-11-18T10:29:44;93541.72;;;14.38;81.06
41078;BME280;26823;42.662;23.352;2022-11-18T10:32:14;93547.72;;;16.62;69.21
41078;BME280;26823;42.662;23.352;2022-11-18T10:34:55;93546.31;;;17.77;65.46
41078;BME280;26823;42.662;23.352;2022-11-18T10:37:22;93551.66;;;19.66;58.55
41078;BME280;26823;42.662;23.352;2022-11-18T10:39:53;93547.88;;;19.74;53.98
41078;BME280;26823;42.662;23.352;2022-11-18T10:42:34;93525.53;;;15.95;65.87
41078;BME280;26823;42.662;23.352;2022-11-18T10:48:16;93499.75;;;15.68;69.84
41078;BME280;26823;42.662;23.352;2022-11-18T10:56:02;93504.25;;;16.01;68.87
41078;BME280;26823;42.662;23.352;2022-11-18T10:58:30;93488.41;;;15.53;69.57
41078;BME280;26823;42.662;23.352;2022-11-18T11:01:09;93502.94;;;15.70;70.50
41078;BME280;26823;42.662;23.352;2022-11-18T11:03:40;93504.31;;;16.29;67.18
41078;BME280;26823;42.662;23.352;2022-11-18T11:06:13;93496.34;;;15.71;66.72
41078;BME280;26823;42.662;23.352;2022-11-18T11:08:48;93475.09;;;15.89;67.52
41078;BME280;26823;42.662;23.352;2022-11-18T11:13:57;93508.22;;;17.68;61.78
41078;BME280;26823;42.662;23.352;2022-11-18T11:16:24;93528.97;;;18.21;57.90
41078;BME280;26823;42.662;23.352;2022-11-18T11:18:55;93512.03;;;18.94;57.32
41078;BME280;26823;42.662;23.352;2022-11-18T11:21:25;93504.53;;;17.60;57.94
41078;BME280;26823;42.662;23.352;2022-11-18T11:23:52;93476.03;;;16.66;61.23
41078;BME280;26823;42.662;23.352;2022-11-18T11:26:47;93466.75;;;15.44;65.68
41078;BME280;26823;42.662;23.352;2022-11-18T11:32:18;93477.34;;;15.99;67.17
41078;BME280;26823;42.662;23.352;2022-11-18T11:38:32;93472.66;;;14.63;69.86
41078;BME280;26823;42.662;23.352;2022-11-18T11:51:38;93462.97;;;13.44;79.65
41078;BME280;26823;42.662;23.352;2022-11-18T11:56:57;93460.97;;;13.53;78.36
41078;BME280;26823;42.662;23.352;2022-11-18T11:59:27;93462.06;;;13.31;76.01
41078;BME280;26823;42.662;23.352;2022-11-18T12:05:14;93442.44;;;12.57;81.42
41078;BME280;26823;42.662;23.352;2022-11-18T12:07:47;93440.78;;;12.17;83.46
41078;BME280;26823;42.662;23.352;2022-11-18T12:18:52;93446.22;;;12.65;83.94
41078;BME280;26823;42.662;23.352;2022-11-18T12:26:56;93428.28;;;12.81;81.71
41078;BME280;26823;42.662;23.352;2022-11-18T12:29:24;93418.00;;;12.96;81.30
41078;BME280;26823;42.662;23.352;2022-11-18T12:34:57;93438.25;;;12.98;80.85
41078;BME280;26823;42.662;23.352;2022-11-18T12:39:57;93422.78;;;12.99;81.42
41078;BME280;26823;42.662;23.352;2022-11-18T12:50:54;93417.75;;;13.10;79.09
41078;BME280;26823;42.662;23.352;2022-11-18T12:58:46;93392.59;;;13.30;80.00
41078;BME280;26823;42.662;23.352;2022-11-18T13:01:16;93368.56;;;12.90;79.65
41078;BME280;26823;42.662;23.352;2022-11-18T13:03:42;93386.28;;;12.87;79.68
41078;BME280;26823;42.662;23.352;2022-11-18T13:06:29;93387.47;;;13.08;78.40
41078;BME280;26823;42.662;23.352;2022-11-18T13:09:04;93360.31;;;13.08;80.33
41078;BME280;26823;42.662;23.352;2022-11-18T13:11:46;93370.63;;;13.14;79.62
41078;BME280;26823;42.662;23.352;2022-11-18T13:14:20;93353.75;;;13.30;78.27
41078;BME280;26823;42.662;23.352;2022-11-18T13:17:35;93371.28;;;13.41;77.31
41078;BME280;26823;42.662;23.352;2022-11-18T13:25:44;93321.13;;;13.60;68.57
41078;BME280;26823;42.662;23.352;2022-11-18T13:33:46;93350.94;;;13.68;70.46
41078;BME280;26823;42.662;23.352;2022-11-18T13:36:22;93329.81;;;13.86;67.48
41078;BME280;26823;42.662;23.352;2022-11-18T13:39:05;93310.13;;;13.90;67.92
41078;BME280;26823;42.662;23.352;2022-11-18T13:41:33;93308.88;;;13.99;68.36
41078;BME280;26823;42.662;23.352;2022-11-18T13:46:40;93320.25;;;14.14;68.47
41078;BME280;26823;42.662;23.352;2022-11-18T13:49:12;93328.84;;;14.16;67.32
41078;BME280;26823;42.662;23.352;2022-11-18T13:51:38;93321.56;;;14.66;60.95
41078;BME280;26823;42.662;23.352;2022-11-18T13:54:04;93326.50;;;14.51;63.67
41078;BME280;26823;42.662;23.352;2022-11-18T13:56:30;93340.69;;;14.45;63.50
41078;BME280;26823;42.662;23.352;2022-11-18T13:58:58;93328.44;;;14.39;64.91
41078;BME280;26823;42.662;23.352;2022-11-18T14:01:31;93333.19;;;14.29;67.05
41078;BME280;26823;42.662;23.352;2022-11-18T14:04:02;93335.09;;;14.16;65.64
41078;BME280;26823;42.662;23.352;2022-11-18T14:06:31;93319.69;;;14.21;66.40
41078;BME280;26823;42.662;23.352;2022-11-18T14:09:05;93323.56;;;14.32;66.72
41078;BME280;26823;42.662;23.352;2022-11-18T14:11:37;93303.72;;;14.19;66.61
41078;BME280;26823;42.662;23.352;2022-11-18T14:14:03;93308.44;;;14.10;68.25
41078;BME280;26823;42.662;23.352;2022-11-18T14:16:38;93291.41;;;13.88;68.89
41078;BME280;26823;42.662;23.352;2022-11-18T14:19:04;93299.47;;;13.97;68.85
41078;BME280;26823;42.662;23.352;2022-11-18T14:21:32;93297.56;;;13.97;67.30
41078;BME280;26823;42.662;23.352;2022-11-18T14:23:59;93312.19;;;14.05;66.45
41078;BME280;26823;42.662;23.352;2022-11-18T14:26:28;93319.72;;;14.45;71.76
41078;BME280;26823;42.662;23.352;2022-11-18T14:28:56;93279.59;;;14.42;67.06
41078;BME280;26823;42.662;23.352;2022-11-18T14:31:29;93304.53;;;14.44;63.91
41078;BME280;26823;42.662;23.352;2022-11-18T14:34:23;93309.53;;;14.55;61.37
41078;BME280;26823;42.662;23.352;2022-11-18T14:36:50;93315.31;;;14.65;65.17
41078;BME280;26823;42.662;23.352;2022-11-18T14:39:29;93292.06;;;14.80;60.55
41078;BME280;26823;42.662;23.352;2022-11-18T14:41:57;93293.53;;;14.90;62.05
41078;BME280;26823;42.662;23.352;2022-11-18T14:44:24;93310.69;;;14.78;62.13
41078;BME280;26823;42.662;23.352;2022-11-18T14:46:56;93309.63;;;15.08;59.99
41078;BME280;26823;42.662;23.352;2022-11-18T14:49:24;93317.38;;;14.81;60.66
41078;BME280;26823;42.662;23.352;2022-11-18T14:51:51;93323.38;;;14.87;59.50
41078;BME280;26823;42.662;23.352;2022-11-18T14:54:18;93338.69;;;14.91;58.29
41078;BME280;26823;42.662;23.352;2022-11-18T14:56:45;93345.13;;;15.11;58.32
41078;BME280;26823;42.662;23.352;2022-11-18T14:59:12;93291.88;;;14.73;58.99